createdAt,value
2022-09-28T00:02:09.750Z,98.81
2022-09-28T00:04:36.191Z,99.14
2022-09-28T00:07:02.486Z,99.40
2022-09-28T00:09:28.774Z,99.35
2022-09-28T00:11:55.319Z,98.83
2022-09-28T00:14:21.858Z,98.92
2022-09-28T00:16:48.277Z,98.40
2022-09-28T00:19:14.695Z,98.35
2022-09-28T00:21:42.290Z,98.26
2022-09-28T00:24:13.153Z,98.31
2022-09-28T00:26:43.259Z,98.20
2022-09-28T00:29:23.060Z,98.02
2022-09-28T00:31:52.154Z,97.67
2022-09-28T00:34:18.842Z,98.14
2022-09-28T00:36:46.708Z,98.18
2022-09-28T00:39:15.079Z,98.32
2022-09-28T00:41:42.043Z,98.39
2022-09-28T00:44:26.787Z,98.26
2022-09-28T00:47:01.363Z,98.46
2022-09-28T00:49:34.239Z,98.40
2022-09-28T00:52:03.251Z,98.41
2022-09-28T00:54:29.590Z,98.41
2022-09-28T00:56:56.834Z,98.79
2022-09-28T00:59:23.262Z,98.99
2022-09-28T01:01:49.609Z,99.23
2022-09-28T01:04:17.262Z,99.09
2022-09-28T01:06:45.231Z,99.24
2022-09-28T01:09:13.876Z,99.10
2022-09-28T01:11:40.843Z,99.44
2022-09-28T01:14:11.717Z,99.64
2022-09-28T01:16:47.879Z,99.15
2022-09-28T01:19:50.955Z,98.60
2022-09-28T01:22:30.881Z,98.36
2022-09-28T01:25:34.864Z,98.54
2022-09-28T01:28:28.978Z,98.24
2022-09-28T01:31:08.724Z,98.04
2022-09-28T01:33:44.570Z,97.84
2022-09-28T01:36:28.274Z,98.22
2022-09-28T01:39:10.946Z,97.87
2022-09-28T01:41:40.094Z,98.04
2022-09-28T01:44:10.651Z,97.47
2022-09-28T01:46:42.177Z,97.55
2022-09-28T01:49:19.646Z,97.75
2022-09-28T01:51:59.602Z,97.88
2022-09-28T01:54:31.723Z,98.04
2022-09-28T01:57:09.004Z,98.63
2022-09-28T01:59:39.632Z,99.00
2022-09-28T02:02:15.565Z,99.17
2022-09-28T02:04:58.544Z,100.00
2022-09-28T02:07:31.253Z,100.00
2022-09-28T02:10:03.971Z,100.00
2022-09-28T02:12:34.619Z,100.00
2022-09-28T02:15:17.931Z,100.00
2022-09-28T02:17:44.659Z,100.00
2022-09-28T02:20:11.287Z,100.00
2022-09-28T02:22:49.098Z,100.00
2022-09-28T02:25:28.144Z,100.00
2022-09-28T02:28:02.731Z,100.00
2022-09-28T02:30:35.657Z,100.00
2022-09-28T02:33:10.510Z,100.00
2022-09-28T02:35:38.215Z,100.00
2022-09-28T02:38:04.556Z,100.00
2022-09-28T02:40:36.175Z,100.00
2022-09-28T02:43:15.981Z,100.00
2022-09-28T02:46:30.643Z,100.00
2022-09-28T02:49:26.019Z,100.00
2022-09-28T02:52:06.712Z,100.00
2022-09-28T02:54:32.977Z,100.00
2022-09-28T02:57:17.769Z,100.00
2022-09-28T03:00:07.424Z,100.00
2022-09-28T03:02:53.996Z,100.00
2022-09-28T03:05:45.913Z,100.00
2022-09-28T03:08:33.687Z,100.00
2022-09-28T03:11:04.490Z,100.00
2022-09-28T03:13:31.673Z,100.00
2022-09-28T03:16:30.368Z,100.00
2022-09-28T03:18:56.674Z,100.00
2022-09-28T03:21:23.016Z,100.00
2022-09-28T03:23:49.413Z,100.00
2022-09-28T03:26:15.705Z,100.00
2022-09-28T03:28:42.367Z,100.00
2022-09-28T03:31:08.779Z,100.00
2022-09-28T03:33:35.196Z,100.00
2022-09-28T03:36:01.695Z,100.00
2022-09-28T03:38:28.071Z,100.00
2022-09-28T03:40:59.636Z,100.00
2022-09-28T03:43:27.476Z,100.00
2022-09-28T03:45:55.872Z,100.00
2022-09-28T03:48:32.671Z,100.00
2022-09-28T03:51:02.036Z,100.00
2022-09-28T03:53:28.580Z,100.00
2022-09-28T03:55:55.626Z,100.00
2022-09-28T03:58:22.869Z,100.00
2022-09-28T04:00:49.925Z,100.00
2022-09-28T04:03:16.295Z,100.00
2022-09-28T04:05:50.463Z,100.00
2022-09-28T04:08:17.032Z,100.00
2022-09-28T04:10:43.344Z,100.00
2022-09-28T04:13:10.733Z,100.00
2022-09-28T04:15:37.074Z,100.00
2022-09-28T04:18:03.466Z,100.00
2022-09-28T04:20:29.759Z,100.00
2022-09-28T04:22:57.910Z,100.00
2022-09-28T04:25:24.285Z,100.00
2022-09-28T04:27:50.580Z,100.00
2022-09-28T04:30:16.990Z,100.00
2022-09-28T04:32:43.366Z,100.00
2022-09-28T04:35:11.676Z,100.00
2022-09-28T04:37:37.968Z,100.00
2022-09-28T04:40:04.707Z,100.00
2022-09-28T04:42:31.018Z,100.00
2022-09-28T04:44:57.353Z,100.00
2022-09-28T04:47:23.699Z,100.00
2022-09-28T04:49:50.005Z,100.00
2022-09-28T04:52:18.518Z,100.00
2022-09-28T04:54:45.139Z,100.00
2022-09-28T04:57:11.434Z,100.00
2022-09-28T04:59:37.805Z,100.00
2022-09-28T05:02:04.526Z,100.00
2022-09-28T05:04:30.922Z,100.00
2022-09-28T05:06:57.863Z,100.00
2022-09-28T05:09:24.426Z,100.00
2022-09-28T05:11:51.507Z,100.00
2022-09-28T05:14:17.811Z,100.00
2022-09-28T05:16:44.845Z,100.00
2022-09-28T05:19:11.425Z,100.00
2022-09-28T05:21:37.806Z,100.00
2022-09-28T05:24:04.197Z,100.00
2022-09-28T05:26:30.486Z,99.63
2022-09-28T05:28:56.753Z,99.85
2022-09-28T05:31:23.052Z,99.55
2022-09-28T05:33:49.530Z,99.72
2022-09-28T05:36:15.837Z,99.96
2022-09-28T05:38:42.178Z,99.81
2022-09-28T05:41:08.572Z,99.99
2022-09-28T05:43:34.955Z,99.93
2022-09-28T05:46:01.300Z,99.75
2022-09-28T05:48:27.727Z,99.51
2022-09-28T05:50:54.342Z,99.52
2022-09-28T05:53:21.205Z,99.51
2022-09-28T05:55:47.972Z,99.66
2022-09-28T05:58:14.291Z,99.95
2022-09-28T06:00:40.506Z,99.72
2022-09-28T06:03:10.463Z,99.55
2022-09-28T06:05:38.074Z,98.85
2022-09-28T06:08:05.745Z,98.29
2022-09-28T06:10:33.392Z,98.11
2022-09-28T06:13:00.533Z,98.07
2022-09-28T06:15:29.764Z,98.11
2022-09-28T06:18:05.223Z,98.31
2022-09-28T06:20:34.755Z,98.22
2022-09-28T06:23:01.090Z,98.66
2022-09-28T06:25:27.564Z,98.25
2022-09-28T06:28:01.993Z,98.61
2022-09-28T06:30:29.884Z,98.28
2022-09-28T06:32:58.373Z,98.41
2022-09-28T06:35:26.872Z,98.79
2022-09-28T06:37:53.901Z,98.36
2022-09-28T06:40:21.510Z,98.65
2022-09-28T06:43:09.731Z,98.77
2022-09-28T06:45:37.182Z,98.80
2022-09-28T06:48:03.972Z,99.20
2022-09-28T06:50:36.354Z,99.29
2022-09-28T06:53:04.277Z,99.33
2022-09-28T06:55:31.117Z,99.76
2022-09-28T06:58:05.234Z,99.81
2022-09-28T07:00:34.696Z,99.83
2022-09-28T07:03:06.913Z,99.73
2022-09-28T07:05:34.822Z,99.16
2022-09-28T07:08:01.396Z,99.86
2022-09-28T07:10:29.674Z,100.00
2022-09-28T07:12:57.414Z,100.00
2022-09-28T07:15:24.600Z,100.00
2022-09-28T07:18:01.854Z,92.72
2022-09-28T07:20:29.573Z,87.06
2022-09-28T07:23:11.829Z,86.49
2022-09-28T07:25:42.657Z,76.40
2022-09-28T07:28:09.064Z,79.65
2022-09-28T07:30:35.738Z,71.49
2022-09-28T07:33:04.041Z,72.40
2022-09-28T07:35:30.365Z,71.49
2022-09-28T07:38:01.269Z,64.88
2022-09-28T07:40:28.277Z,65.85
2022-09-28T07:42:54.685Z,61.32
2022-09-28T07:45:21.106Z,62.93
2022-09-28T07:47:47.455Z,60.91
2022-09-28T07:50:13.804Z,56.60
2022-09-28T07:52:40.120Z,54.96
2022-09-28T07:55:07.586Z,57.09
2022-09-28T07:57:34.140Z,55.93
2022-09-28T08:00:00.702Z,55.53
2022-09-28T08:02:27.064Z,54.99
2022-09-28T08:04:53.502Z,53.50
2022-09-28T08:07:23.651Z,53.14
2022-09-28T08:09:50.452Z,51.45
2022-09-28T08:12:17.264Z,50.91
2022-09-28T08:14:43.617Z,49.85
2022-09-28T08:17:09.946Z,48.53
2022-09-28T08:19:36.247Z,50.35
2022-09-28T08:22:02.597Z,49.72
2022-09-28T08:24:29.105Z,49.04
2022-09-28T08:26:55.450Z,48.72
2022-09-28T08:29:21.745Z,48.11
2022-09-28T08:31:48.480Z,46.76
2022-09-28T08:34:14.842Z,47.25
2022-09-28T08:36:41.364Z,45.06
2022-09-28T08:39:07.687Z,43.87
2022-09-28T08:41:55.451Z,43.65
2022-09-28T08:44:25.036Z,46.72
2022-09-28T08:46:56.648Z,45.88
2022-09-28T08:49:32.072Z,45.78
2022-09-28T08:52:07.736Z,45.88
2022-09-28T08:54:53.469Z,47.76
2022-09-28T08:57:27.427Z,47.17
2022-09-28T08:59:56.514Z,49.45
2022-09-28T09:02:28.435Z,49.83
2022-09-28T09:04:57.028Z,52.16
2022-09-28T09:07:48.921Z,51.70
2022-09-28T09:10:23.229Z,52.41
2022-09-28T09:13:11.507Z,53.33
2022-09-28T09:15:50.785Z,53.33
2022-09-28T09:18:28.739Z,53.76
2022-09-28T09:21:03.172Z,53.80
2022-09-28T09:23:47.159Z,54.04
2022-09-28T09:26:22.382Z,54.54
2022-09-28T09:29:26.623Z,58.15
2022-09-28T09:32:08.045Z,56.72
2022-09-28T09:34:56.218Z,54.79
2022-09-28T09:37:42.540Z,55.38
2022-09-28T09:40:34.098Z,54.03
2022-09-28T09:43:19.193Z,54.72
2022-09-28T09:46:00.454Z,54.36
2022-09-28T09:48:52.354Z,55.98
2022-09-28T09:51:25.071Z,56.10
2022-09-28T09:53:59.272Z,56.22
2022-09-28T09:56:40.256Z,58.49
2022-09-28T09:59:21.845Z,57.93
2022-09-28T10:01:48.766Z,58.71
2022-09-28T10:04:25.954Z,54.65
2022-09-28T10:06:58.775Z,55.18
2022-09-28T10:09:36.780Z,55.59
2022-09-28T10:12:03.326Z,55.91
2022-09-28T10:14:29.812Z,57.91
2022-09-28T10:16:57.963Z,58.39
2022-09-28T10:19:35.336Z,59.56
2022-09-28T10:22:04.688Z,59.86
2022-09-28T10:24:45.519Z,59.40
2022-09-28T10:27:17.075Z,57.80
2022-09-28T10:29:50.632Z,60.99
2022-09-28T10:32:35.899Z,61.02
2022-09-28T10:35:12.778Z,61.58
2022-09-28T10:38:03.571Z,60.31
2022-09-28T10:40:52.797Z,59.90
2022-09-28T10:43:57.425Z,59.50
2022-09-28T10:46:24.484Z,57.87
2022-09-28T10:49:06.700Z,59.35
2022-09-28T10:51:47.345Z,57.78
2022-09-28T10:54:17.630Z,57.53
2022-09-28T10:56:45.248Z,58.96
2022-09-28T10:59:26.706Z,58.24
2022-09-28T11:02:12.543Z,57.19
2022-09-28T11:04:42.619Z,57.56
2022-09-28T11:07:20.361Z,58.31
2022-09-28T11:09:49.096Z,58.55
2022-09-28T11:12:18.038Z,57.81
2022-09-28T11:14:44.654Z,59.15
2022-09-28T11:17:35.005Z,60.04
2022-09-28T11:20:27.488Z,59.50
2022-09-28T11:22:56.066Z,60.36
2022-09-28T11:25:25.724Z,58.36
2022-09-28T11:27:52.018Z,59.81
2022-09-28T11:30:45.882Z,59.75
2022-09-28T11:33:16.403Z,60.43
2022-09-28T11:36:05.216Z,61.78
2022-09-28T11:38:56.033Z,62.84
2022-09-28T11:41:50.529Z,62.92
2022-09-28T11:44:38.926Z,63.02
2022-09-28T11:47:22.582Z,61.75
2022-09-28T11:50:36.336Z,62.05
2022-09-28T11:53:29.573Z,60.76
2022-09-28T11:56:09.191Z,60.13
2022-09-28T11:58:42.884Z,61.14
2022-09-28T12:01:24.379Z,56.54
2022-09-28T12:03:57.047Z,59.80
2022-09-28T12:06:37.318Z,61.20
2022-09-28T12:09:13.067Z,60.24
2022-09-28T12:11:42.612Z,59.38
2022-09-28T12:14:18.427Z,58.48
2022-09-28T12:17:08.022Z,58.21
2022-09-28T12:20:00.425Z,59.75
2022-09-28T12:22:45.997Z,57.94
2022-09-28T12:25:19.350Z,57.20
2022-09-28T12:27:53.987Z,58.66
2022-09-28T12:30:22.698Z,57.14
2022-09-28T12:33:08.330Z,56.76
2022-09-28T12:35:56.754Z,58.26
2022-09-28T12:39:08.407Z,57.67
2022-09-28T12:41:42.449Z,49.45
2022-09-28T12:44:22.171Z,52.22
2022-09-28T12:47:17.464Z,55.96
2022-09-28T12:53:16.946Z,57.90
2022-09-28T12:55:55.410Z,63.55
2022-09-28T12:58:24.678Z,66.43
2022-09-28T13:01:06.482Z,68.44
2022-09-28T13:03:49.038Z,70.48
2022-09-28T13:06:41.357Z,69.01
2022-09-28T13:09:15.957Z,71.53
2022-09-28T13:11:54.455Z,69.78
2022-09-28T13:14:49.834Z,71.66
2022-09-28T13:17:39.366Z,70.41
2022-09-28T13:20:17.442Z,67.13
2022-09-28T13:23:16.214Z,67.93
2022-09-28T13:25:49.588Z,66.82
2022-09-28T13:28:20.092Z,67.47
2022-09-28T13:30:49.161Z,65.35
2022-09-28T13:33:37.962Z,64.60
2022-09-28T13:36:30.146Z,65.79
2022-09-28T13:38:58.682Z,66.28
2022-09-28T13:41:33.368Z,64.82
2022-09-28T13:44:11.784Z,66.22
2022-09-28T13:46:38.194Z,64.64
2022-09-28T13:49:15.941Z,63.24
2022-09-28T13:51:57.649Z,63.74
2022-09-28T13:54:43.226Z,66.34
2022-09-28T13:57:23.250Z,67.81
2022-09-28T14:00:19.453Z,67.42
2022-09-28T14:02:56.742Z,61.86
2022-09-28T14:05:23.022Z,65.37
2022-09-28T14:08:30.324Z,65.41
2022-09-28T14:11:17.369Z,66.24
2022-09-28T14:13:43.632Z,66.08
2022-09-28T14:16:21.036Z,67.46
2022-09-28T14:18:52.660Z,67.58
2022-09-28T14:21:34.966Z,65.61
2022-09-28T14:24:46.209Z,66.49
2022-09-28T14:27:47.825Z,66.05
2022-09-28T14:30:14.049Z,64.92
2022-09-28T14:32:45.066Z,64.65
2022-09-28T14:35:26.255Z,64.35
2022-09-28T14:37:59.073Z,64.73
2022-09-28T14:40:30.475Z,64.40
2022-09-28T14:43:35.270Z,63.48
2022-09-28T14:46:10.719Z,64.63
2022-09-28T14:48:50.791Z,65.58
2022-09-28T14:51:26.015Z,64.87
2022-09-28T14:54:01.272Z,64.98
2022-09-28T14:56:38.737Z,64.93
2022-09-28T14:59:07.167Z,65.15
2022-09-28T15:01:35.538Z,65.70
2022-09-28T15:04:07.013Z,66.32
2022-09-28T15:06:51.885Z,66.77
2022-09-28T15:09:30.545Z,67.29
2022-09-28T15:12:05.425Z,67.39
2022-09-28T15:14:35.010Z,68.03
2022-09-28T15:17:09.667Z,68.45
2022-09-28T15:20:14.794Z,67.94
2022-09-28T15:22:48.804Z,68.47
2022-09-28T15:25:18.156Z,68.46
2022-09-28T15:27:44.474Z,69.17
2022-09-28T15:30:25.007Z,69.47
2022-09-28T15:32:56.104Z,71.11
2022-09-28T15:35:27.381Z,71.33
2022-09-28T15:37:55.336Z,71.28
2022-09-28T15:40:33.046Z,72.51
2022-09-28T15:42:59.913Z,72.40
2022-09-28T15:45:36.986Z,72.56
2022-09-28T15:48:26.715Z,73.12
2022-09-28T15:51:07.337Z,72.94
2022-09-28T15:53:33.868Z,72.18
2022-09-28T15:56:04.074Z,72.83
2022-09-28T15:58:30.386Z,72.70
2022-09-28T16:01:31.295Z,73.55
2022-09-28T16:03:57.623Z,74.38
2022-09-28T16:06:24.107Z,74.40
2022-09-28T16:08:50.416Z,74.40
2022-09-28T16:11:24.751Z,75.04
2022-09-28T16:13:59.931Z,73.81
2022-09-28T16:16:29.891Z,74.27
2022-09-28T16:18:58.924Z,74.60
2022-09-28T16:21:48.110Z,75.13
2022-09-28T16:24:28.454Z,75.08
2022-09-28T16:27:03.951Z,74.87
2022-09-28T16:29:38.965Z,75.76
2022-09-28T16:32:23.705Z,75.63
2022-09-28T16:35:26.801Z,75.80
2022-09-28T16:37:56.623Z,76.28
2022-09-28T16:40:23.340Z,76.67
2022-09-28T16:42:50.059Z,76.66
2022-09-28T16:45:21.456Z,77.08
2022-09-28T16:47:47.873Z,77.25
2022-09-28T16:50:15.055Z,77.28
2022-09-28T16:52:41.490Z,77.81
2022-09-28T16:55:35.843Z,78.37
2022-09-28T16:57:57.375Z,78.29
2022-09-28T17:00:25.627Z,77.97
2022-09-28T17:02:53.163Z,78.45
2022-09-28T17:05:20.338Z,78.63
2022-09-28T17:07:48.766Z,78.94
2022-09-28T17:10:20.350Z,79.51
2022-09-28T17:12:46.662Z,79.51
2022-09-28T17:15:13.094Z,79.85
2022-09-28T17:17:39.430Z,80.30
2022-09-28T17:20:18.053Z,81.45
2022-09-28T17:22:44.373Z,81.18
2022-09-28T17:25:12.705Z,81.33
2022-09-28T17:27:41.497Z,81.52
2022-09-28T17:30:09.858Z,82.14
2022-09-28T17:32:37.369Z,82.53
2022-09-28T17:35:23.695Z,83.22
2022-09-28T17:37:50.264Z,83.88
2022-09-28T17:40:20.168Z,83.85
2022-09-28T17:42:47.275Z,84.10
2022-09-28T17:45:17.110Z,83.95
2022-09-28T17:47:44.448Z,83.68
2022-09-28T17:50:44.347Z,84.32
2022-09-28T17:53:13.409Z,87.22
2022-09-28T17:55:40.156Z,85.73
2022-09-28T17:58:20.525Z,85.26
2022-09-28T18:00:48.346Z,86.02
2022-09-28T18:03:22.728Z,86.31
2022-09-28T18:05:52.830Z,86.76
2022-09-28T18:08:20.949Z,86.68
2022-09-28T18:10:47.273Z,88.36
2022-09-28T18:13:14.103Z,87.59
2022-09-28T18:15:40.953Z,88.33
2022-09-28T18:18:07.300Z,88.22
2022-09-28T18:20:34.508Z,88.19
2022-09-28T18:23:00.812Z,88.25
2022-09-28T18:25:27.159Z,88.67
2022-09-28T18:27:53.483Z,88.60
2022-09-28T18:30:19.809Z,88.62
2022-09-28T18:32:46.134Z,89.47
2022-09-28T18:35:12.467Z,89.49
2022-09-28T18:37:40.499Z,88.22
2022-09-28T18:40:11.071Z,88.75
2022-09-28T18:42:37.370Z,88.63
2022-09-28T18:45:04.706Z,88.41
2022-09-28T18:47:31.320Z,89.10
2022-09-28T18:49:57.632Z,89.26
2022-09-28T18:52:24.449Z,89.32
2022-09-28T18:54:50.770Z,89.49
2022-09-28T18:57:18.168Z,89.78
2022-09-28T18:59:45.222Z,89.88
2022-09-28T19:02:12.420Z,90.09
2022-09-28T19:04:39.307Z,90.09
2022-09-28T19:07:06.458Z,90.72
2022-09-28T19:09:33.246Z,90.80
2022-09-28T19:11:59.916Z,90.50
2022-09-28T19:14:26.525Z,93.28
2022-09-28T19:16:52.874Z,94.13
2022-09-28T19:19:20.480Z,93.11
2022-09-28T19:21:47.021Z,94.71
2022-09-28T19:24:18.326Z,94.25
2022-09-28T19:26:45.196Z,94.71
2022-09-28T19:29:11.956Z,95.21
2022-09-28T19:31:38.713Z,95.33
2022-09-28T19:34:05.730Z,94.46
2022-09-28T19:36:32.920Z,93.24
2022-09-28T19:39:00.532Z,93.53
2022-09-28T19:41:28.949Z,93.30
2022-09-28T19:43:55.250Z,92.48
2022-09-28T19:46:21.523Z,93.33
2022-09-28T19:48:47.879Z,93.71
2022-09-28T19:51:14.164Z,94.00
2022-09-28T19:53:40.494Z,94.14
2022-09-28T19:56:06.818Z,94.45
2022-09-28T19:58:35.629Z,96.70
2022-09-28T20:01:06.383Z,96.42
2022-09-28T20:03:33.711Z,97.31
2022-09-28T20:06:00.777Z,97.57
2022-09-28T20:08:28.405Z,98.46
2022-09-28T20:10:55.683Z,98.25
2022-09-28T20:13:23.560Z,98.05
2022-09-28T20:15:50.007Z,96.79
2022-09-28T20:18:16.642Z,95.33
2022-09-28T20:20:42.962Z,96.38
2022-09-28T20:23:09.567Z,97.25
2022-09-28T20:25:35.891Z,97.08
2022-09-28T20:28:02.421Z,96.66
2022-09-28T20:30:28.744Z,96.49
2022-09-28T20:32:55.129Z,96.26
2022-09-28T20:35:30.615Z,96.50
2022-09-28T20:37:58.792Z,97.01
2022-09-28T20:40:25.131Z,96.85
2022-09-28T20:42:51.469Z,96.38
2022-09-28T20:45:17.787Z,95.84
2022-09-28T20:47:44.006Z,95.71
2022-09-28T20:50:10.309Z,95.89
2022-09-28T20:52:36.570Z,96.82
2022-09-28T20:55:02.970Z,96.44
2022-09-28T20:57:29.294Z,96.40
2022-09-28T20:59:55.522Z,97.21
2022-09-28T21:02:21.926Z,98.28
2022-09-28T21:04:48.325Z,97.62
2022-09-28T21:07:14.546Z,100.00
2022-09-28T21:09:40.859Z,100.00
2022-09-28T21:12:07.070Z,100.00
2022-09-28T21:14:33.390Z,100.00
2022-09-28T21:16:59.941Z,100.00
2022-09-28T21:19:26.250Z,99.87
2022-09-28T21:21:52.547Z,100.00
2022-09-28T21:24:18.915Z,100.00
2022-09-28T21:26:45.381Z,100.00
2022-09-28T21:29:13.752Z,99.37
2022-09-28T21:31:45.321Z,99.11
2022-09-28T21:34:16.974Z,99.00
2022-09-28T21:36:43.372Z,99.16
2022-09-28T21:39:10.588Z,98.89
2022-09-28T21:41:37.431Z,99.96
2022-09-28T21:44:03.799Z,99.72
2022-09-28T21:46:30.155Z,99.95
2022-09-28T21:48:56.480Z,99.70
2022-09-28T21:51:23.184Z,99.92
2022-09-28T21:53:49.533Z,100.00
2022-09-28T21:56:16.068Z,100.00
2022-09-28T21:58:42.404Z,99.11
2022-09-28T22:01:11.546Z,98.65
2022-09-28T22:03:37.855Z,97.78
2022-09-28T22:06:04.696Z,98.77
2022-09-28T22:08:31.346Z,97.85
2022-09-28T22:10:59.714Z,97.47
2022-09-28T22:13:27.595Z,97.28
2022-09-28T22:15:55.017Z,97.93
2022-09-28T22:18:21.372Z,98.36
2022-09-28T22:20:47.601Z,98.79
2022-09-28T22:23:13.886Z,98.21
2022-09-28T22:25:40.132Z,98.56
2022-09-28T22:28:06.438Z,98.74
2022-09-28T22:30:34.043Z,99.05
2022-09-28T22:33:00.362Z,98.95
2022-09-28T22:35:26.585Z,99.69
2022-09-28T22:37:52.865Z,98.71
2022-09-28T22:40:19.187Z,97.57
2022-09-28T22:42:45.533Z,96.83
2022-09-28T22:45:11.782Z,97.27
2022-09-28T22:47:38.090Z,97.59
2022-09-28T22:50:04.481Z,98.72
2022-09-28T22:52:30.783Z,98.62
2022-09-28T22:54:57.022Z,99.42
2022-09-28T22:57:23.334Z,99.38
2022-09-28T22:59:49.574Z,99.97
2022-09-28T23:02:15.904Z,99.56
2022-09-28T23:04:42.142Z,100.00
2022-09-28T23:07:08.457Z,100.00
2022-09-28T23:09:34.702Z,100.00
2022-09-28T23:12:01.242Z,100.00
2022-09-28T23:14:27.555Z,100.00
2022-09-28T23:16:53.782Z,100.00
2022-09-28T23:19:20.308Z,100.00
2022-09-28T23:21:46.811Z,100.00
2022-09-28T23:24:13.158Z,99.48
2022-09-28T23:26:39.395Z,99.60
2022-09-28T23:29:05.723Z,98.87
2022-09-28T23:31:32.606Z,99.75
2022-09-28T23:34:04.758Z,100.00
2022-09-28T23:36:31.928Z,100.00
2022-09-28T23:38:58.267Z,99.81
2022-09-28T23:41:24.524Z,99.14
2022-09-28T23:43:51.016Z,98.96
2022-09-28T23:46:20.702Z,98.84
2022-09-28T23:48:47.993Z,98.54
2022-09-28T23:51:14.298Z,98.66
2022-09-28T23:53:40.515Z,100.00
2022-09-28T23:56:06.812Z,100.00
2022-09-28T23:58:33.060Z,100.00
